sensor_id;sensor_type;location;lat;lon;timestamp;temperature;humidity
23083;DHT22;11709;52.420;10.538;2023-02-03T00:03:48;4.40;99.90
23083;DHT22;11709;52.420;10.538;2023-02-03T00:07:51;4.50;99.90
23083;DHT22;11709;52.420;10.538;2023-02-03T00:11:53;4.50;99.90
23083;DHT22;11709;52.420;10.538;2023-02-03T00:15:56;4.60;99.90
23083;DHT22;11709;52.420;10.538;2023-02-03T00:19:58;4.60;99.90
23083;DHT22;11709;52.420;10.538;2023-02-03T00:24:01;4.70;99.90
23083;DHT22;11709;52.420;10.538;2023-02-03T00:28:04;4.70;99.90
23083;DHT22;11709;52.420;10.538;2023-02-03T00:32:06;4.80;99.90
23083;DHT22;11709;52.420;10.538;2023-02-03T00:36:09;4.80;99.90
23083;DHT22;11709;52.420;10.538;2023-02-03T00:40:12;4.80;99.90
23083;DHT22;11709;52.420;10.538;2023-02-03T00:44:15;4.90;99.90
23083;DHT22;11709;52.420;10.538;2023-02-03T00:48:17;5.10;99.90
23083;DHT22;11709;52.420;10.538;2023-02-03T00:52:21;5.20;99.90
23083;DHT22;11709;52.420;10.538;2023-02-03T00:56:23;5.40;99.90
23083;DHT22;11709;52.420;10.538;2023-02-03T01:00:26;5.50;99.90
23083;DHT22;11709;52.420;10.538;2023-02-03T01:04:28;5.70;99.90
23083;DHT22;11709;52.420;10.538;2023-02-03T01:08:31;5.80;99.90
23083;DHT22;11709;52.420;10.538;2023-02-03T01:12:33;5.90;99.90
23083;DHT22;11709;52.420;10.538;2023-02-03T01:16:36;6.00;99.90
23083;DHT22;11709;52.420;10.538;2023-02-03T01:20:38;6.00;99.90
23083;DHT22;11709;52.420;10.538;2023-02-03T01:24:41;6.20;99.90
23083;DHT22;11709;52.420;10.538;2023-02-03T01:28:50;6.30;99.90
23083;DHT22;11709;52.420;10.538;2023-02-03T01:32:48;6.40;99.90
23083;DHT22;11709;52.420;10.538;2023-02-03T01:36:51;6.50;99.90
23083;DHT22;11709;52.420;10.538;2023-02-03T01:40:53;6.60;99.90
23083;DHT22;11709;52.420;10.538;2023-02-03T01:44:56;6.70;99.90
23083;DHT22;11709;52.420;10.538;2023-02-03T01:49:07;6.90;99.90
23083;DHT22;11709;52.420;10.538;2023-02-03T01:53:10;7.00;99.90
23083;DHT22;11709;52.420;10.538;2023-02-03T01:57:26;7.10;99.90
23083;DHT22;11709;52.420;10.538;2023-02-03T02:01:18;7.30;99.90
23083;DHT22;11709;52.420;10.538;2023-02-03T02:05:33;7.30;99.90
23083;DHT22;11709;52.420;10.538;2023-02-03T02:09:35;7.30;99.90
23083;DHT22;11709;52.420;10.538;2023-02-03T02:13:38;7.40;99.90
23083;DHT22;11709;52.420;10.538;2023-02-03T02:18:06;7.50;99.90
23083;DHT22;11709;52.420;10.538;2023-02-03T02:22:26;7.50;99.90
23083;DHT22;11709;52.420;10.538;2023-02-03T02:31:05;7.50;99.90
23083;DHT22;11709;52.420;10.538;2023-02-03T02:35:36;7.50;99.90
23083;DHT22;11709;52.420;10.538;2023-02-03T02:39:44;7.50;99.90
23083;DHT22;11709;52.420;10.538;2023-02-03T02:44:06;7.50;99.90
23083;DHT22;11709;52.420;10.538;2023-02-03T02:48:09;7.60;99.90
23083;DHT22;11709;52.420;10.538;2023-02-03T02:52:14;7.60;99.90
23083;DHT22;11709;52.420;10.538;2023-02-03T02:56:18;7.60;99.90
23083;DHT22;11709;52.420;10.538;2023-02-03T03:00:22;7.60;99.90
23083;DHT22;11709;52.420;10.538;2023-02-03T03:04:27;7.70;99.90
23083;DHT22;11709;52.420;10.538;2023-02-03T03:08:34;7.70;99.90
23083;DHT22;11709;52.420;10.538;2023-02-03T03:12:39;7.70;99.90
23083;DHT22;11709;52.420;10.538;2023-02-03T03:16:44;7.80;99.90
23083;DHT22;11709;52.420;10.538;2023-02-03T03:20:48;7.80;99.90
23083;DHT22;11709;52.420;10.538;2023-02-03T03:24:55;7.80;99.90
23083;DHT22;11709;52.420;10.538;2023-02-03T03:29:13;7.90;99.90
23083;DHT22;11709;52.420;10.538;2023-02-03T03:33:15;7.90;99.90
23083;DHT22;11709;52.420;10.538;2023-02-03T03:37:24;8.00;99.90
23083;DHT22;11709;52.420;10.538;2023-02-03T03:41:37;8.00;99.90
23083;DHT22;11709;52.420;10.538;2023-02-03T03:45:57;8.00;99.90
23083;DHT22;11709;52.420;10.538;2023-02-03T03:50:01;8.00;99.90
23083;DHT22;11709;52.420;10.538;2023-02-03T03:54:06;8.00;99.90
23083;DHT22;11709;52.420;10.538;2023-02-03T03:58:12;8.00;99.90
23083;DHT22;11709;52.420;10.538;2023-02-03T04:02:16;8.00;99.90
23083;DHT22;11709;52.420;10.538;2023-02-03T04:06:20;8.00;99.90
23083;DHT22;11709;52.420;10.538;2023-02-03T04:10:31;8.00;99.90
23083;DHT22;11709;52.420;10.538;2023-02-03T04:14:35;8.10;99.90
23083;DHT22;11709;52.420;10.538;2023-02-03T04:18:41;8.10;99.90
23083;DHT22;11709;52.420;10.538;2023-02-03T04:22:43;8.10;99.90
23083;DHT22;11709;52.420;10.538;2023-02-03T04:26:46;8.10;99.90
23083;DHT22;11709;52.420;10.538;2023-02-03T04:30:48;8.10;99.90
23083;DHT22;11709;52.420;10.538;2023-02-03T04:34:51;8.20;99.90
23083;DHT22;11709;52.420;10.538;2023-02-03T04:38:53;8.20;99.90
23083;DHT22;11709;52.420;10.538;2023-02-03T04:42:56;8.20;99.90
23083;DHT22;11709;52.420;10.538;2023-02-03T04:46:58;8.20;99.90
23083;DHT22;11709;52.420;10.538;2023-02-03T04:51:05;8.20;99.90
23083;DHT22;11709;52.420;10.538;2023-02-03T04:55:08;8.30;99.90
23083;DHT22;11709;52.420;10.538;2023-02-03T04:59:10;8.20;99.90
23083;DHT22;11709;52.420;10.538;2023-02-03T05:03:13;8.30;99.90
23083;DHT22;11709;52.420;10.538;2023-02-03T05:07:15;8.20;99.90
23083;DHT22;11709;52.420;10.538;2023-02-03T05:11:18;8.20;99.90
23083;DHT22;11709;52.420;10.538;2023-02-03T05:15:21;8.30;99.90
23083;DHT22;11709;52.420;10.538;2023-02-03T05:19:23;8.20;99.90
23083;DHT22;11709;52.420;10.538;2023-02-03T05:23:25;8.30;99.90
23083;DHT22;11709;52.420;10.538;2023-02-03T05:27:28;8.30;99.90
23083;DHT22;11709;52.420;10.538;2023-02-03T05:31:31;8.30;99.90
23083;DHT22;11709;52.420;10.538;2023-02-03T05:35:34;8.30;99.90
23083;DHT22;11709;52.420;10.538;2023-02-03T05:39:36;8.30;99.90
23083;DHT22;11709;52.420;10.538;2023-02-03T05:43:39;8.30;99.90
23083;DHT22;11709;52.420;10.538;2023-02-03T05:47:41;8.30;99.90
23083;DHT22;11709;52.420;10.538;2023-02-03T05:51:45;8.20;99.90
23083;DHT22;11709;52.420;10.538;2023-02-03T05:55:48;8.20;99.90
23083;DHT22;11709;52.420;10.538;2023-02-03T05:59:50;8.30;99.90
23083;DHT22;11709;52.420;10.538;2023-02-03T06:03:53;8.30;99.90
23083;DHT22;11709;52.420;10.538;2023-02-03T06:07:55;8.30;99.90
23083;DHT22;11709;52.420;10.538;2023-02-03T06:11:58;8.30;99.90
23083;DHT22;11709;52.420;10.538;2023-02-03T06:16:01;8.30;99.90
23083;DHT22;11709;52.420;10.538;2023-02-03T06:20:05;8.30;99.90
23083;DHT22;11709;52.420;10.538;2023-02-03T06:24:09;8.30;99.90
23083;DHT22;11709;52.420;10.538;2023-02-03T06:28:12;8.30;99.90
23083;DHT22;11709;52.420;10.538;2023-02-03T06:32:14;8.30;99.90
23083;DHT22;11709;52.420;10.538;2023-02-03T06:36:17;8.30;99.90
23083;DHT22;11709;52.420;10.538;2023-02-03T06:40:19;8.30;99.90
23083;DHT22;11709;52.420;10.538;2023-02-03T06:44:22;8.20;99.90
23083;DHT22;11709;52.420;10.538;2023-02-03T06:48:24;8.20;99.90
23083;DHT22;11709;52.420;10.538;2023-02-03T06:52:27;8.20;99.90
23083;DHT22;11709;52.420;10.538;2023-02-03T06:56:30;8.20;99.90
23083;DHT22;11709;52.420;10.538;2023-02-03T07:00:32;8.10;99.90
23083;DHT22;11709;52.420;10.538;2023-02-03T07:04:35;8.10;99.90
23083;DHT22;11709;52.420;10.538;2023-02-03T07:08:39;8.10;99.90
23083;DHT22;11709;52.420;10.538;2023-02-03T07:12:42;8.10;99.90
23083;DHT22;11709;52.420;10.538;2023-02-03T07:16:44;8.10;99.90
23083;DHT22;11709;52.420;10.538;2023-02-03T07:20:47;8.10;99.90
23083;DHT22;11709;52.420;10.538;2023-02-03T07:24:49;8.00;99.90
23083;DHT22;11709;52.420;10.538;2023-02-03T07:28:52;8.10;99.90
23083;DHT22;11709;52.420;10.538;2023-02-03T07:32:54;8.10;99.90
23083;DHT22;11709;52.420;10.538;2023-02-03T07:36:57;8.10;99.90
23083;DHT22;11709;52.420;10.538;2023-02-03T07:40:59;8.10;99.90
23083;DHT22;11709;52.420;10.538;2023-02-03T07:45:02;8.10;99.90
23083;DHT22;11709;52.420;10.538;2023-02-03T07:49:05;8.10;99.90
23083;DHT22;11709;52.420;10.538;2023-02-03T07:53:07;8.10;99.90
23083;DHT22;11709;52.420;10.538;2023-02-03T07:57:10;8.10;99.90
23083;DHT22;11709;52.420;10.538;2023-02-03T08:01:14;8.10;99.90
23083;DHT22;11709;52.420;10.538;2023-02-03T08:05:17;8.10;99.90
23083;DHT22;11709;52.420;10.538;2023-02-03T08:09:20;8.10;99.90
23083;DHT22;11709;52.420;10.538;2023-02-03T08:13:23;8.10;99.90
23083;DHT22;11709;52.420;10.538;2023-02-03T08:17:26;8.10;99.90
23083;DHT22;11709;52.420;10.538;2023-02-03T08:21:28;8.10;99.90
23083;DHT22;11709;52.420;10.538;2023-02-03T08:25:31;8.10;99.90
23083;DHT22;11709;52.420;10.538;2023-02-03T08:29:34;8.20;99.90
23083;DHT22;11709;52.420;10.538;2023-02-03T08:33:37;8.20;99.90
23083;DHT22;11709;52.420;10.538;2023-02-03T08:37:40;8.20;99.90
23083;DHT22;11709;52.420;10.538;2023-02-03T08:41:42;8.20;99.90
23083;DHT22;11709;52.420;10.538;2023-02-03T08:45:45;8.20;99.90
23083;DHT22;11709;52.420;10.538;2023-02-03T08:49:47;8.30;99.90
23083;DHT22;11709;52.420;10.538;2023-02-03T08:53:49;8.40;99.90
23083;DHT22;11709;52.420;10.538;2023-02-03T08:57:52;8.40;99.90
23083;DHT22;11709;52.420;10.538;2023-02-03T09:01:55;8.50;99.90
23083;DHT22;11709;52.420;10.538;2023-02-03T09:05:59;8.50;99.90
23083;DHT22;11709;52.420;10.538;2023-02-03T09:10:02;8.50;99.90
23083;DHT22;11709;52.420;10.538;2023-02-03T09:14:04;8.50;99.90
23083;DHT22;11709;52.420;10.538;2023-02-03T09:18:07;8.60;99.90
23083;DHT22;11709;52.420;10.538;2023-02-03T09:22:09;8.60;99.90
23083;DHT22;11709;52.420;10.538;2023-02-03T09:26:14;8.60;99.90
23083;DHT22;11709;52.420;10.538;2023-02-03T09:30:16;8.60;99.90
23083;DHT22;11709;52.420;10.538;2023-02-03T09:34:20;8.60;99.90
23083;DHT22;11709;52.420;10.538;2023-02-03T09:38:22;8.60;99.90
23083;DHT22;11709;52.420;10.538;2023-02-03T09:42:40;8.60;99.90
23083;DHT22;11709;52.420;10.538;2023-02-03T09:46:43;8.60;99.90
23083;DHT22;11709;52.420;10.538;2023-02-03T09:50:46;8.60;99.90
23083;DHT22;11709;52.420;10.538;2023-02-03T09:59:02;8.60;99.90
23083;DHT22;11709;52.420;10.538;2023-02-03T10:12:00;8.60;99.90
23083;DHT22;11709;52.420;10.538;2023-02-03T10:20:31;8.60;99.90
23083;DHT22;11709;52.420;10.538;2023-02-03T10:24:39;8.60;99.90
23083;DHT22;11709;52.420;10.538;2023-02-03T10:28:57;8.70;99.90
23083;DHT22;11709;52.420;10.538;2023-02-03T10:33:08;8.70;99.90
23083;DHT22;11709;52.420;10.538;2023-02-03T10:37:26;8.70;99.90
23083;DHT22;11709;52.420;10.538;2023-02-03T10:41:30;8.40;99.90
23083;DHT22;11709;52.420;10.538;2023-02-03T10:45:37;7.90;99.90
23083;DHT22;11709;52.420;10.538;2023-02-03T10:49:40;7.60;99.90
23083;DHT22;11709;52.420;10.538;2023-02-03T10:53:43;7.70;99.90
23083;DHT22;11709;52.420;10.538;2023-02-03T10:57:46;7.80;99.90
23083;DHT22;11709;52.420;10.538;2023-02-03T11:01:49;8.00;99.90
23083;DHT22;11709;52.420;10.538;2023-02-03T11:10:36;8.10;99.90
23083;DHT22;11709;52.420;10.538;2023-02-03T11:14:43;8.20;99.90
23083;DHT22;11709;52.420;10.538;2023-02-03T11:18:59;8.20;99.90
23083;DHT22;11709;52.420;10.538;2023-02-03T11:23:04;8.20;99.90
23083;DHT22;11709;52.420;10.538;2023-02-03T11:27:15;8.20;99.90
23083;DHT22;11709;52.420;10.538;2023-02-03T11:31:27;8.20;99.90
23083;DHT22;11709;52.420;10.538;2023-02-03T11:35:30;8.20;99.90
23083;DHT22;11709;52.420;10.538;2023-02-03T11:39:34;8.30;99.90
23083;DHT22;11709;52.420;10.538;2023-02-03T11:43:37;8.30;99.90
23083;DHT22;11709;52.420;10.538;2023-02-03T11:47:51;8.30;99.90
23083;DHT22;11709;52.420;10.538;2023-02-03T12:00:49;8.50;99.90
23083;DHT22;11709;52.420;10.538;2023-02-03T12:05:03;8.50;99.90
23083;DHT22;11709;52.420;10.538;2023-02-03T12:17:39;8.80;99.90
23083;DHT22;11709;52.420;10.538;2023-02-03T12:21:44;8.90;99.90
23083;DHT22;11709;52.420;10.538;2023-02-03T12:25:59;8.90;99.90
23083;DHT22;11709;52.420;10.538;2023-02-03T12:30:04;8.90;99.90
23083;DHT22;11709;52.420;10.538;2023-02-03T12:38:26;9.00;99.90
23083;DHT22;11709;52.420;10.538;2023-02-03T12:42:42;9.00;99.90
23083;DHT22;11709;52.420;10.538;2023-02-03T12:46:48;9.00;99.90
23083;DHT22;11709;52.420;10.538;2023-02-03T12:50:52;9.00;99.90
23083;DHT22;11709;52.420;10.538;2023-02-03T12:55:21;9.00;84.30
23083;DHT22;11709;52.420;10.538;2023-02-03T12:59:24;8.90;72.70
23083;DHT22;11709;52.420;10.538;2023-02-03T13:03:38;8.90;67.90
23083;DHT22;11709;52.420;10.538;2023-02-03T13:07:52;9.00;64.00
23083;DHT22;11709;52.420;10.538;2023-02-03T13:16:05;9.00;64.60
23083;DHT22;11709;52.420;10.538;2023-02-03T13:20:14;9.00;59.60
23083;DHT22;11709;52.420;10.538;2023-02-03T13:24:17;9.00;63.10
23083;DHT22;11709;52.420;10.538;2023-02-03T13:37:41;8.90;71.30
23083;DHT22;11709;52.420;10.538;2023-02-03T13:45:49;8.90;67.00
23083;DHT22;11709;52.420;10.538;2023-02-03T13:49:55;8.90;69.40
23083;DHT22;11709;52.420;10.538;2023-02-03T13:54:06;8.90;73.70
23083;DHT22;11709;52.420;10.538;2023-02-03T13:58:24;8.90;66.20
23083;DHT22;11709;52.420;10.538;2023-02-03T14:10:41;8.80;65.70
23083;DHT22;11709;52.420;10.538;2023-02-03T14:18:55;8.80;67.60
23083;DHT22;11709;52.420;10.538;2023-02-03T14:23:10;8.70;73.10
23083;DHT22;11709;52.420;10.538;2023-02-03T14:27:23;8.70;66.70
23083;DHT22;11709;52.420;10.538;2023-02-03T14:31:27;8.70;61.40
23083;DHT22;11709;52.420;10.538;2023-02-03T14:35:34;8.70;62.50
23083;DHT22;11709;52.420;10.538;2023-02-03T14:44:03;8.70;61.50
23083;DHT22;11709;52.420;10.538;2023-02-03T14:48:14;8.70;59.50
23083;DHT22;11709;52.420;10.538;2023-02-03T15:05:57;8.60;54.40
23083;DHT22;11709;52.420;10.538;2023-02-03T15:10:00;8.60;54.30
23083;DHT22;11709;52.420;10.538;2023-02-03T15:14:24;8.50;56.10
23083;DHT22;11709;52.420;10.538;2023-02-03T15:18:34;8.40;58.40
23083;DHT22;11709;52.420;10.538;2023-02-03T15:22:38;8.40;62.50
23083;DHT22;11709;52.420;10.538;2023-02-03T15:26:49;8.30;63.10
23083;DHT22;11709;52.420;10.538;2023-02-03T15:31:04;8.30;58.50
23083;DHT22;11709;52.420;10.538;2023-02-03T15:35:05;8.30;55.20
23083;DHT22;11709;52.420;10.538;2023-02-03T15:43:35;8.20;51.30
23083;DHT22;11709;52.420;10.538;2023-02-03T15:47:44;8.20;52.20
23083;DHT22;11709;52.420;10.538;2023-02-03T15:51:51;8.10;51.10
23083;DHT22;11709;52.420;10.538;2023-02-03T15:55:59;8.10;52.30
23083;DHT22;11709;52.420;10.538;2023-02-03T16:04:33;8.00;55.70
23083;DHT22;11709;52.420;10.538;2023-02-03T16:08:48;8.00;56.00
23083;DHT22;11709;52.420;10.538;2023-02-03T16:12:48;8.00;54.10
23083;DHT22;11709;52.420;10.538;2023-02-03T16:16:51;7.90;52.70
23083;DHT22;11709;52.420;10.538;2023-02-03T16:20:55;7.90;50.80
23083;DHT22;11709;52.420;10.538;2023-02-03T16:25:53;7.90;54.40
23083;DHT22;11709;52.420;10.538;2023-02-03T16:29:13;7.90;52.30
23083;DHT22;11709;52.420;10.538;2023-02-03T16:33:30;7.80;55.90
23083;DHT22;11709;52.420;10.538;2023-02-03T16:37:50;7.80;55.90
23083;DHT22;11709;52.420;10.538;2023-02-03T16:42:19;7.70;56.10
23083;DHT22;11709;52.420;10.538;2023-02-03T16:46:40;7.70;60.50
23083;DHT22;11709;52.420;10.538;2023-02-03T16:51:04;7.70;60.70
23083;DHT22;11709;52.420;10.538;2023-02-03T16:55:08;7.70;58.50
23083;DHT22;11709;52.420;10.538;2023-02-03T16:59:11;7.70;57.50
23083;DHT22;11709;52.420;10.538;2023-02-03T17:03:17;7.70;57.40
23083;DHT22;11709;52.420;10.538;2023-02-03T17:07:20;7.60;57.20
23083;DHT22;11709;52.420;10.538;2023-02-03T17:11:23;7.60;53.00
23083;DHT22;11709;52.420;10.538;2023-02-03T17:15:27;7.60;53.10
23083;DHT22;11709;52.420;10.538;2023-02-03T17:19:29;7.60;51.60
23083;DHT22;11709;52.420;10.538;2023-02-03T17:23:32;7.60;46.70
23083;DHT22;11709;52.420;10.538;2023-02-03T17:27:34;7.50;29.00
23083;DHT22;11709;52.420;10.538;2023-02-03T17:31:37;7.40;1.00
23083;DHT22;11709;52.420;10.538;2023-02-03T17:35:41;7.40;1.00
23083;DHT22;11709;52.420;10.538;2023-02-03T17:39:44;7.30;1.00
23083;DHT22;11709;52.420;10.538;2023-02-03T17:43:48;7.20;4.40
23083;DHT22;11709;52.420;10.538;2023-02-03T17:47:51;7.20;23.80
23083;DHT22;11709;52.420;10.538;2023-02-03T17:51:53;7.00;38.50
23083;DHT22;11709;52.420;10.538;2023-02-03T17:55:56;7.00;77.40
23083;DHT22;11709;52.420;10.538;2023-02-03T17:59:58;6.90;99.80
23083;DHT22;11709;52.420;10.538;2023-02-03T18:04:02;6.80;99.90
23083;DHT22;11709;52.420;10.538;2023-02-03T18:08:05;6.70;99.90
23083;DHT22;11709;52.420;10.538;2023-02-03T18:12:08;6.60;99.90
23083;DHT22;11709;52.420;10.538;2023-02-03T18:16:16;6.60;99.90
23083;DHT22;11709;52.420;10.538;2023-02-03T18:20:20;6.70;99.90
23083;DHT22;11709;52.420;10.538;2023-02-03T18:24:23;6.70;99.90
23083;DHT22;11709;52.420;10.538;2023-02-03T18:28:27;6.70;97.00
23083;DHT22;11709;52.420;10.538;2023-02-03T18:32:29;6.80;95.50
23083;DHT22;11709;52.420;10.538;2023-02-03T18:36:32;6.80;94.60
23083;DHT22;11709;52.420;10.538;2023-02-03T18:44:36;6.80;91.20
23083;DHT22;11709;52.420;10.538;2023-02-03T18:48:38;6.80;95.10
23083;DHT22;11709;52.420;10.538;2023-02-03T18:52:41;6.80;92.60
23083;DHT22;11709;52.420;10.538;2023-02-03T18:56:45;6.80;97.20
23083;DHT22;11709;52.420;10.538;2023-02-03T19:00:48;6.80;99.90
23083;DHT22;11709;52.420;10.538;2023-02-03T19:04:51;6.80;99.90
23083;DHT22;11709;52.420;10.538;2023-02-03T19:08:54;6.70;99.90
23083;DHT22;11709;52.420;10.538;2023-02-03T19:12:57;6.70;99.90
23083;DHT22;11709;52.420;10.538;2023-02-03T19:16:59;6.70;99.90
23083;DHT22;11709;52.420;10.538;2023-02-03T19:21:02;6.70;99.90
23083;DHT22;11709;52.420;10.538;2023-02-03T19:25:05;6.70;99.90
23083;DHT22;11709;52.420;10.538;2023-02-03T19:29:07;6.70;99.90
23083;DHT22;11709;52.420;10.538;2023-02-03T19:33:10;6.70;99.90
23083;DHT22;11709;52.420;10.538;2023-02-03T19:37:12;6.80;99.90
23083;DHT22;11709;52.420;10.538;2023-02-03T19:41:15;6.70;99.90
23083;DHT22;11709;52.420;10.538;2023-02-03T19:45:17;6.70;99.90
23083;DHT22;11709;52.420;10.538;2023-02-03T19:49:20;6.70;99.90
23083;DHT22;11709;52.420;10.538;2023-02-03T19:53:22;6.70;99.90
23083;DHT22;11709;52.420;10.538;2023-02-03T19:57:25;6.70;99.90
23083;DHT22;11709;52.420;10.538;2023-02-03T20:01:27;6.70;99.90
23083;DHT22;11709;52.420;10.538;2023-02-03T20:05:30;6.70;99.90
23083;DHT22;11709;52.420;10.538;2023-02-03T20:09:34;6.60;99.90
23083;DHT22;11709;52.420;10.538;2023-02-03T20:13:37;6.60;99.90
23083;DHT22;11709;52.420;10.538;2023-02-03T20:17:41;6.60;99.90
23083;DHT22;11709;52.420;10.538;2023-02-03T20:21:45;6.50;99.90
23083;DHT22;11709;52.420;10.538;2023-02-03T20:25:51;6.50;99.90
23083;DHT22;11709;52.420;10.538;2023-02-03T20:29:55;6.50;99.90
23083;DHT22;11709;52.420;10.538;2023-02-03T20:33:57;6.50;99.90
23083;DHT22;11709;52.420;10.538;2023-02-03T20:38:00;6.50;99.90
23083;DHT22;11709;52.420;10.538;2023-02-03T20:42:14;6.50;99.90
23083;DHT22;11709;52.420;10.538;2023-02-03T20:46:18;6.50;99.90
23083;DHT22;11709;52.420;10.538;2023-02-03T20:50:23;6.50;99.90
23083;DHT22;11709;52.420;10.538;2023-02-03T20:54:26;6.50;99.90
23083;DHT22;11709;52.420;10.538;2023-02-03T20:58:31;6.50;99.90
23083;DHT22;11709;52.420;10.538;2023-02-03T21:02:33;6.50;99.90
23083;DHT22;11709;52.420;10.538;2023-02-03T21:06:37;6.40;99.90
23083;DHT22;11709;52.420;10.538;2023-02-03T21:10:40;6.40;99.90
23083;DHT22;11709;52.420;10.538;2023-02-03T21:14:45;6.40;99.90
23083;DHT22;11709;52.420;10.538;2023-02-03T21:18:54;6.30;99.90
23083;DHT22;11709;52.420;10.538;2023-02-03T21:22:59;6.30;99.90
23083;DHT22;11709;52.420;10.538;2023-02-03T21:27:06;6.30;99.90
23083;DHT22;11709;52.420;10.538;2023-02-03T21:35:36;6.30;99.90
23083;DHT22;11709;52.420;10.538;2023-02-03T21:39:39;6.30;99.90
23083;DHT22;11709;52.420;10.538;2023-02-03T21:43:51;6.20;99.90
23083;DHT22;11709;52.420;10.538;2023-02-03T21:47:51;6.20;99.90
23083;DHT22;11709;52.420;10.538;2023-02-03T21:51:54;6.20;99.90
23083;DHT22;11709;52.420;10.538;2023-02-03T21:55:58;6.20;99.90
23083;DHT22;11709;52.420;10.538;2023-02-03T22:00:31;6.20;99.90
23083;DHT22;11709;52.420;10.538;2023-02-03T22:04:07;6.10;99.90
23083;DHT22;11709;52.420;10.538;2023-02-03T22:08:18;6.20;99.90
23083;DHT22;11709;52.420;10.538;2023-02-03T22:12:20;6.20;99.90
23083;DHT22;11709;52.420;10.538;2023-02-03T22:16:23;6.20;99.90
23083;DHT22;11709;52.420;10.538;2023-02-03T22:20:25;6.20;99.90
23083;DHT22;11709;52.420;10.538;2023-02-03T22:24:28;6.10;99.90
23083;DHT22;11709;52.420;10.538;2023-02-03T22:28:30;6.20;99.90
23083;DHT22;11709;52.420;10.538;2023-02-03T22:32:33;6.20;99.90
23083;DHT22;11709;52.420;10.538;2023-02-03T22:36:35;6.20;99.90
23083;DHT22;11709;52.420;10.538;2023-02-03T22:40:38;6.10;99.90
23083;DHT22;11709;52.420;10.538;2023-02-03T22:44:40;6.10;99.90
23083;DHT22;11709;52.420;10.538;2023-02-03T22:48:43;6.10;99.90
23083;DHT22;11709;52.420;10.538;2023-02-03T22:52:45;6.10;99.90
23083;DHT22;11709;52.420;10.538;2023-02-03T22:56:48;6.00;99.90
23083;DHT22;11709;52.420;10.538;2023-02-03T23:00:50;6.00;99.90
23083;DHT22;11709;52.420;10.538;2023-02-03T23:04:53;6.00;99.90
23083;DHT22;11709;52.420;10.538;2023-02-03T23:08:55;6.00;99.90
23083;DHT22;11709;52.420;10.538;2023-02-03T23:12:58;6.00;99.90
23083;DHT22;11709;52.420;10.538;2023-02-03T23:17:01;6.00;99.90
23083;DHT22;11709;52.420;10.538;2023-02-03T23:21:04;6.00;99.90
23083;DHT22;11709;52.420;10.538;2023-02-03T23:25:07;5.90;99.90
23083;DHT22;11709;52.420;10.538;2023-02-03T23:29:10;5.90;99.90
23083;DHT22;11709;52.420;10.538;2023-02-03T23:33:12;5.90;99.90
23083;DHT22;11709;52.420;10.538;2023-02-03T23:37:15;5.70;99.90
23083;DHT22;11709;52.420;10.538;2023-02-03T23:41:17;5.60;99.90
23083;DHT22;11709;52.420;10.538;2023-02-03T23:45:20;5.50;99.90
23083;DHT22;11709;52.420;10.538;2023-02-03T23:49:23;5.40;99.90
23083;DHT22;11709;52.420;10.538;2023-02-03T23:53:25;5.30;99.90
23083;DHT22;11709;52.420;10.538;2023-02-03T23:57:28;5.20;99.90
